Time;durP1;ratioP1;P1;durP2;ratioP2;P2;SDS_P1;SDS_P2;PMS_P1;PMS_P2;Temp;Humidity;BMP_temperature;BMP_pressure;BME280_temperature;BME280_humidity;BME280_pressure;Samples;Min_cycle;Max_cycle;Signal;HPM_P1;HPM_P2
2021/01/01 00:01:35;;;;;;;32.83;22.53;;;;;;;1.75;73.85;99624.75;5041551;28;20037;-75
2021/01/01 00:04:01;;;;;;;32.83;21.17;;;;;;;1.77;73.98;99626.50;5041807;28;20033;-75
2021/01/01 00:06:28;;;;;;;28.70;19.93;;;;;;;1.83;74.15;99627.47;5045110;28;20040;-75
2021/01/01 00:08:54;;;;;;;34.90;21.03;;;;;;;1.77;74.47;99626.50;5044981;28;20035;-75
2021/01/01 00:11:19;;;;;;;33.63;22.38;;;;;;;1.81;73.93;99623.09;5041927;28;20037;-75
2021/01/01 00:13:45;;;;;;;29.47;20.57;;;;;;;1.82;74.04;99624.84;5041286;28;20036;-75
2021/01/01 00:16:12;;;;;;;28.23;19.10;;;;;;;1.84;73.82;99633.56;5041846;28;20537;-75
2021/01/01 00:18:38;;;;;;;32.38;21.90;;;;;;;1.88;73.88;99627.53;5044744;28;20025;-75
2021/01/01 00:21:04;;;;;;;30.38;18.67;;;;;;;1.90;73.25;99628.44;5042510;28;20051;-75
2021/01/01 00:23:29;;;;;;;29.02;19.10;;;;;;;1.80;73.61;99632.63;5041122;28;20112;-75
2021/01/01 00:25:55;;;;;;;31.17;20.70;;;;;;;1.80;73.77;99626.53;5041318;28;20550;-75
2021/01/01 00:28:20;;;;;;;32.10;21.53;;;;;;;1.80;73.90;99626.53;5044261;28;20037;-75
2021/01/01 00:30:45;;;;;;;26.97;19.07;;;;;;;1.81;73.96;99630.88;5044466;28;20491;-75
2021/01/01 00:33:11;;;;;;;29.73;20.38;;;;;;;1.80;73.81;99627.41;5042495;28;20540;-75
2021/01/01 00:35:36;;;;;;;36.50;24.75;;;;;;;1.80;73.92;99623.94;5039863;28;20041;-75
2021/01/01 00:38:02;;;;;;;31.17;21.47;;;;;;;1.71;74.21;99624.69;5041479;28;20037;-75
2021/01/01 00:40:27;;;;;;;32.30;22.67;;;;;;;1.77;74.24;99626.50;5044303;28;20029;-75
2021/01/01 00:42:53;;;;;;;33.43;22.10;;;;;;;1.80;73.56;99627.41;5044010;28;20041;-75
2021/01/01 00:45:18;;;;;;;35.97;23.27;;;;;;;1.84;73.99;99636.16;5040950;28;20036;-75
2021/01/01 00:47:47;;;;;;;28.07;19.90;;;;;;;1.84;74.18;99636.16;5040821;28;20497;-75
2021/01/01 00:50:13;;;;;;;33.03;20.85;;;;;;;1.81;73.65;99628.28;5042688;28;20049;-75
2021/01/01 00:52:38;;;;;;;37.47;25.05;;;;;;;1.82;73.72;99632.66;5044002;28;20025;-75
2021/01/01 00:55:05;;;;;;;32.15;22.85;;;;;;;1.80;73.92;99627.41;5043305;28;20037;-75
2021/01/01 00:57:30;;;;;;;37.42;22.42;;;;;;;1.83;74.09;99622.25;5040629;28;20037;-75
2021/01/01 00:59:56;;;;;;;33.35;22.92;;;;;;;1.84;74.04;99633.56;5044245;28;20036;-75
2021/01/01 01:02:21;;;;;;;39.55;24.58;;;;;;;1.85;73.81;99630.97;5040425;28;20045;-75
2021/01/01 01:04:46;;;;;;;43.58;26.70;;;;;;;1.84;73.65;99638.75;5039240;28;20037;-75
2021/01/01 01:07:12;;;;;;;45.63;29.87;;;;;;;1.85;73.91;99643.09;5042380;28;20048;-75
2021/01/01 01:09:37;;;;;;;42.40;27.85;;;;;;;1.85;73.28;99635.28;5043849;28;20043;-75
2021/01/01 01:12:03;;;;;;;39.40;25.97;;;;;;;1.77;73.64;99631.72;5043000;28;20025;-75
2021/01/01 01:14:28;;;;;;;39.30;25.47;;;;;;;1.74;74.09;99636.00;5040082;28;20499;-75
2021/01/01 01:16:53;;;;;;;36.97;23.33;;;;;;;1.75;73.98;99634.28;5040283;28;20120;-75
2021/01/01 01:19:19;;;;;;;32.77;23.37;;;;;;;1.77;74.13;99636.91;5043052;28;20132;-75
2021/01/01 01:21:44;;;;;;;38.17;23.87;;;;;;;1.80;73.75;99637.81;5042317;28;20140;-75
2021/01/01 01:24:09;;;;;;;36.83;23.73;;;;;;;1.83;74.38;99634.41;5041791;28;20037;-75
2021/01/01 01:26:35;;;;;;;33.70;23.05;;;;;;;1.85;74.03;99630.97;5040179;28;20048;-75
2021/01/01 01:29:00;;;;;;;29.67;21.00;;;;;;;1.89;73.85;99637.09;5039006;28;20132;-75
2021/01/01 01:31:26;;;;;;;34.35;22.23;;;;;;;1.92;73.54;99647.56;5043336;28;20031;-75
2021/01/01 01:33:51;;;;;;;33.77;23.33;;;;;;;1.94;73.74;99636.31;5043201;28;20029;-75
2021/01/01 01:36:16;;;;;;;29.23;19.33;;;;;;;1.92;73.03;99632.81;5040802;28;20439;-75
2021/01/01 01:38:42;;;;;;;34.13;22.17;;;;;;;1.92;73.39;99637.16;5039714;28;20048;-75
2021/01/01 01:41:07;;;;;;;36.33;23.17;;;;;;;1.93;73.62;99638.88;5040984;28;20045;-75
2021/01/01 01:43:33;;;;;;;28.30;18.93;;;;;;;1.97;73.63;99640.69;5043018;28;20028;-75
2021/01/01 01:45:58;;;;;;;32.85;22.45;;;;;;;1.92;73.34;99640.63;5043111;28;20032;-75
2021/01/01 01:48:29;;;;;;;28.65;19.73;;;;;;;1.81;73.24;99629.19;5038468;28;20037;-75
2021/01/01 01:50:55;;;;;;;28.80;19.70;;;;;;;1.72;73.21;99629.91;5039658;28;20037;-75
2021/01/01 01:53:22;;;;;;;31.77;20.60;;;;;;;1.65;73.68;99632.38;5042493;28;20033;-75
2021/01/01 01:55:50;;;;;;;34.53;21.23;;;;;;;1.57;73.73;99629.66;5042303;28;20036;-75
2021/01/01 01:58:15;;;;;;;31.00;21.60;;;;;;;1.48;73.65;99630.41;5040652;28;20061;-75
2021/01/01 02:00:59;;;;;;;29.47;20.93;;;;;;;1.42;74.21;99621.66;5038285;28;20132;-75
2021/01/01 02:03:29;;;;;;;29.97;20.03;;;;;;;1.34;74.65;99625.81;5031356;28;20033;-75
2021/01/01 02:05:55;;;;;;;28.67;19.73;;;;;;;1.28;74.53;99632.69;5039560;28;20072;-75
2021/01/01 02:08:21;;;;;;;28.37;18.80;;;;;;;1.25;74.72;99636.94;5042478;28;20178;-75
2021/01/01 02:10:49;;;;;;;28.27;19.73;;;;;;;1.20;74.81;99636.88;5042725;28;20124;-75
2021/01/01 02:13:15;;;;;;;31.10;20.00;;;;;;;1.20;74.72;99633.41;5040315;28;20163;-75
2021/01/01 02:15:41;;;;;;;31.37;21.13;;;;;;;1.18;75.25;99635.09;5039502;28;20070;-75
2021/01/01 02:18:06;;;;;;;34.43;21.70;;;;;;;1.15;74.96;99629.84;5040543;28;20040;-75
2021/01/01 02:20:31;;;;;;;35.07;23.87;;;;;;;1.12;75.09;99635.84;5042793;28;20032;-75
2021/01/01 02:22:57;;;;;;;31.33;19.57;;;;;;;1.14;75.52;99634.16;5042542;28;20033;-75
2021/01/01 02:25:22;;;;;;;38.20;24.67;;;;;;;1.18;75.59;99638.59;5039426;28;20439;-75
2021/01/01 02:27:48;;;;;;;36.00;24.10;;;;;;;1.23;75.32;99634.34;5039407;28;20042;-75
2021/01/01 02:30:14;;;;;;;33.27;21.57;;;;;;;1.27;75.15;99630.94;5041243;28;20097;-75
2021/01/01 02:32:40;;;;;;;27.97;19.33;;;;;;;1.33;75.17;99627.56;5042819;28;20372;-75
2021/01/01 02:35:06;;;;;;;31.27;21.00;;;;;;;1.39;75.01;99635.47;5041739;28;20039;-75
2021/01/01 02:37:31;;;;;;;33.23;21.57;;;;;;;1.44;74.99;99639.03;5021528;28;20040;-75
2021/01/01 02:39:57;;;;;;;28.37;19.87;;;;;;;1.51;74.93;99629.56;5039011;28;20037;-75
2021/01/01 02:42:22;;;;;;;30.90;19.93;;;;;;;1.52;74.66;99631.34;5042064;28;20124;-75
2021/01/01 02:44:48;;;;;;;32.30;21.00;;;;;;;1.53;74.80;99633.94;5042686;28;20043;-75
2021/01/01 02:47:15;;;;;;;28.10;18.37;;;;;;;1.61;74.50;99625.41;5040542;28;20032;-75
2021/01/01 02:49:40;;;;;;;27.87;18.33;;;;;;;1.61;74.35;99628.00;5039073;28;20052;-75
2021/01/01 02:52:05;;;;;;;35.10;21.37;;;;;;;1.58;74.95;99630.56;5039977;28;20029;-75
2021/01/01 02:54:31;;;;;;;29.10;19.40;;;;;;;1.59;74.31;99632.31;5042346;28;20037;-75
2021/01/01 02:56:56;;;;;;;32.60;22.53;;;;;;;1.54;75.04;99630.50;5041342;28;20036;-75
2021/01/01 02:59:21;;;;;;;29.67;18.50;;;;;;;1.61;74.48;99628.88;5039282;28;20040;-75
2021/01/01 03:01:47;;;;;;;30.23;19.40;;;;;;;1.57;74.83;99634.00;5038930;28;20037;-75
2021/01/01 03:04:13;;;;;;;30.53;20.23;;;;;;;1.57;74.92;99628.78;5044058;28;20534;-75
2021/01/01 03:06:39;;;;;;;36.70;20.87;;;;;;;1.57;75.12;99634.88;5039249;28;20083;-75
2021/01/01 03:09:05;;;;;;;29.85;19.48;;;;;;;1.59;75.34;99638.38;5042127;28;20041;-75
2021/01/01 03:11:30;;;;;;;31.93;22.37;;;;;;;1.64;75.16;99628.91;5045969;28;20036;-75
2021/01/01 03:13:56;;;;;;;29.52;21.55;;;;;;;1.65;74.65;99630.69;5045882;28;20033;-75
2021/01/01 03:16:21;;;;;;;34.55;21.95;;;;;;;1.66;74.42;99635.03;5042840;28;20040;-75
2021/01/01 03:18:47;;;;;;;30.50;20.43;;;;;;;1.60;74.82;99634.03;5042533;28;20033;-75
2021/01/01 03:21:12;;;;;;;28.13;19.63;;;;;;;1.57;74.51;99629.66;5044218;28;20037;-75
2021/01/01 03:23:37;;;;;;;31.70;21.52;;;;;;;1.47;74.60;99623.47;5045678;28;20672;-75
2021/01/01 03:26:03;;;;;;;31.60;20.63;;;;;;;1.48;74.96;99629.53;5045176;28;20496;-75
2021/01/01 03:28:28;;;;;;;31.83;21.97;;;;;;;1.52;74.55;99621.81;5042541;28;20033;-75
2021/01/01 03:30:54;;;;;;;31.57;20.93;;;;;;;1.50;74.35;99615.72;5042524;28;20030;-75
2021/01/01 03:33:19;;;;;;;33.20;20.60;;;;;;;1.51;74.59;99624.38;5044883;28;20029;-75
2021/01/01 03:35:44;;;;;;;31.00;21.07;;;;;;;1.49;74.75;99626.97;5045712;28;20550;-75
2021/01/01 03:38:10;;;;;;;31.63;20.43;;;;;;;1.54;74.92;99622.69;5043915;28;20051;-75
2021/01/01 03:40:35;;;;;;;32.87;21.60;;;;;;;1.60;74.92;99616.72;5040465;28;20036;-75
2021/01/01 03:43:01;;;;;;;33.40;22.43;;;;;;;1.68;74.88;99622.91;5048584;28;20039;-75
2021/01/01 03:45:29;;;;;;;33.27;20.17;;;;;;;1.74;74.92;99627.34;5045500;28;20123;-75
2021/01/01 03:47:54;;;;;;;31.10;20.67;;;;;;;1.79;74.76;99623.06;5044221;28;20486;-75
2021/01/01 03:50:19;;;;;;;29.23;18.60;;;;;;;1.91;74.11;99625.88;5042487;28;20083;-75
2021/01/01 03:52:44;;;;;;;31.23;20.17;;;;;;;1.93;74.33;99618.06;5041731;28;20026;-75
2021/01/01 03:55:10;;;;;;;30.10;20.20;;;;;;;1.96;74.45;99608.59;5043418;28;20407;-75
2021/01/01 03:57:35;;;;;;;27.80;18.00;;;;;;;2.00;74.46;99603.41;5045138;28;20387;-75
2021/01/01 04:00:05;;;;;;;30.60;19.35;;;;;;;1.94;73.69;99607.69;5044884;28;20115;-75
2021/01/01 04:02:37;;;;;;;27.45;19.10;;;;;;;1.88;73.54;99619.72;5041426;28;20045;-75
2021/01/01 04:05:02;;;;;;;32.10;20.98;;;;;;;1.89;73.68;99616.28;5040918;28;20038;-75
2021/01/01 04:07:28;;;;;;;32.90;20.77;;;;;;;1.91;73.21;99620.66;5045018;28;20041;-75
2021/01/01 04:09:53;;;;;;;29.77;19.98;;;;;;;1.92;73.55;99621.53;5045037;28;20075;-75
2021/01/01 04:12:18;;;;;;;28.15;19.30;;;;;;;1.90;73.49;99616.28;5041789;28;20045;-75
2021/01/01 04:14:44;;;;;;;31.25;21.02;;;;;;;1.92;73.64;99621.53;5041522;28;20056;-75
2021/01/01 04:17:09;;;;;;;31.33;21.80;;;;;;;1.97;74.21;99625.06;5042993;28;20037;-75
2021/01/01 04:19:35;;;;;;;32.03;21.13;;;;;;;2.04;73.43;99626.88;5043909;28;20040;-75
2021/01/01 04:22:00;;;;;;;31.73;19.08;;;;;;;2.08;73.69;99620.88;5044347;28;20029;-75
2021/01/01 04:24:25;;;;;;;33.83;20.02;;;;;;;2.07;73.69;99626.94;5039850;28;20491;-75
2021/01/01 04:26:51;;;;;;;30.52;19.08;;;;;;;2.10;74.08;99627.00;5041215;28;20140;-75
2021/01/01 04:29:17;;;;;;;30.70;20.73;;;;;;;2.22;73.46;99639.28;5042265;28;20043;-75
2021/01/01 04:31:42;;;;;;;32.60;20.95;;;;;;;2.30;73.89;99624.63;5044527;28;20039;-75
2021/01/01 04:34:08;;;;;;;30.85;19.67;;;;;;;2.35;73.10;99632.50;5042993;28;20470;-75
2021/01/01 04:36:34;;;;;;;31.27;20.52;;;;;;;2.31;73.78;99635.94;5041104;28;20083;-75
2021/01/01 04:38:59;;;;;;;36.78;21.00;;;;;;;2.30;74.19;99631.56;5040941;28;20146;-75
2021/01/01 04:41:26;;;;;;;33.40;21.77;;;;;;;2.39;73.67;99635.16;5042934;28;20128;-75
2021/01/01 04:43:51;;;;;;;34.75;21.15;;;;;;;2.53;73.56;99637.94;5044060;28;20094;-75
2021/01/01 04:46:18;;;;;;;36.95;22.23;;;;;;;2.62;73.25;99637.19;5041877;28;20550;-75
2021/01/01 04:48:45;;;;;;;43.22;23.10;;;;;;;2.67;73.71;99634.59;5038399;28;20090;-75
2021/01/01 04:51:11;;;;;;;37.30;22.35;;;;;;;2.74;73.34;99642.50;5049000;28;20036;-75
2021/01/01 04:53:38;;;;;;;37.70;22.85;;;;;;;2.80;73.52;99639.09;5040454;28;20117;-75
2021/01/01 04:56:04;;;;;;;39.13;24.48;;;;;;;2.80;73.53;99641.72;5041202;28;20041;-75
2021/01/01 04:58:30;;;;;;;40.90;24.95;;;;;;;2.82;73.01;99647.81;5044073;28;20090;-75
2021/01/01 05:00:55;;;;;;;40.30;24.38;;;;;;;2.81;73.24;99648.69;5044117;28;20115;-75
2021/01/01 05:03:21;;;;;;;36.85;22.92;;;;;;;2.82;73.63;99656.50;5040664;28;20487;-75
2021/01/01 05:05:48;;;;;;;42.33;24.10;;;;;;;2.84;73.69;99654.78;5042421;28;20036;-75
2021/01/01 05:08:14;;;;;;;40.08;24.35;;;;;;;2.88;73.84;99650.47;5040570;28;20040;-75
2021/01/01 05:10:39;;;;;;;38.83;23.00;;;;;;;2.92;73.91;99652.28;5040291;28;20029;-75
2021/01/01 05:13:12;;;;;;;38.58;25.38;;;;;;;2.98;73.51;99649.72;5041033;28;20403;-75
2021/01/01 05:15:38;;;;;;;;;;;;;;;2.82;74.04;99655.63;5044296;28;20037;-75
2021/01/01 05:18:17;;;;;;;35.08;22.85;;;;;;;2.91;74.32;99654.84;5041854;28;20410;-75
2021/01/01 05:20:43;;;;;;;35.90;23.30;;;;;;;2.92;74.45;99660.09;5040179;28;20099;-75
2021/01/01 05:23:22;;;;;;;34.42;22.15;;;;;;;2.93;74.63;99659.22;5041121;28;20094;-75
2021/01/01 05:25:49;;;;;;;33.35;21.75;;;;;;;3.02;74.47;99659.34;5043573;28;20037;-75
2021/01/01 05:28:15;;;;;;;30.63;21.10;;;;;;;3.06;74.26;99655.88;5041410;28;20419;-75
2021/01/01 05:30:41;;;;;;;34.70;21.80;;;;;;;3.08;73.82;99658.50;5039912;28;20063;-75
2021/01/01 05:33:08;;;;;;;37.55;22.55;;;;;;;3.05;73.88;99668.91;5040798;28;20116;-75
2021/01/01 05:35:34;;;;;;;35.95;23.23;;;;;;;2.93;74.42;99664.44;5043384;28;20076;-75
2021/01/01 05:38:17;;;;;;;32.22;20.08;;;;;;;2.94;74.35;99671.41;5043203;28;20450;-75
2021/01/01 05:40:47;;;;;;;37.17;23.13;;;;;;;2.89;74.86;99667.88;5039999;28;20048;-75
2021/01/01 05:43:23;;;;;;;36.17;22.38;;;;;;;2.81;75.36;99667.78;5041349;28;20080;-75
2021/01/01 05:45:49;;;;;;;33.67;21.73;;;;;;;2.83;75.40;99673.91;5043215;28;20045;-75
2021/01/01 05:48:16;;;;;;;37.55;22.52;;;;;;;2.87;75.31;99666.97;5039762;28;20059;-75
2021/01/01 05:50:43;;;;;;;33.50;22.27;;;;;;;2.87;75.75;99672.19;5039659;28;20033;-75
2021/01/01 05:53:09;;;;;;;33.58;21.35;;;;;;;2.81;75.88;99675.63;5041035;28;20034;-75
2021/01/01 05:55:34;;;;;;;36.70;23.40;;;;;;;2.77;75.83;99672.94;5043215;28;20143;-75
2021/01/01 05:58:00;;;;;;;36.58;24.48;;;;;;;2.83;75.32;99673.03;5043000;28;20094;-75
2021/01/01 06:00:26;;;;;;;35.88;23.63;;;;;;;2.79;75.68;99679.06;5039470;28;20033;-75
2021/01/01 06:02:53;;;;;;;36.17;23.63;;;;;;;2.87;75.40;99679.16;5039325;28;20045;-75
2021/01/01 06:05:19;;;;;;;37.05;22.48;;;;;;;2.89;74.95;99680.91;5042195;28;20052;-75
2021/01/01 06:07:46;;;;;;;34.42;21.48;;;;;;;2.87;75.38;99666.97;5042985;28;20037;-75
2021/01/01 06:10:11;;;;;;;34.58;22.42;;;;;;;2.79;75.34;99668.63;5039844;28;20119;-75
2021/01/01 06:12:39;;;;;;;34.08;22.33;;;;;;;2.71;75.24;99675.50;5039298;28;20120;-75
2021/01/01 06:15:07;;;;;;;36.88;22.90;;;;;;;2.71;75.43;99675.50;5040208;28;20025;-75
2021/01/01 06:17:40;;;;;;;34.72;23.45;;;;;;;2.70;76.04;99676.31;5042878;28;20060;-75
2021/01/01 06:20:06;;;;;;;32.53;21.60;;;;;;;2.70;75.81;99684.16;5041987;28;20075;-75
2021/01/01 06:22:32;;;;;;;30.85;20.15;;;;;;;2.66;76.24;99679.78;5038965;28;20056;-75
2021/01/01 06:25:03;;;;;;;32.17;20.75;;;;;;;2.59;76.31;99679.72;5039395;28;20029;-75
2021/01/01 06:27:30;;;;;;;30.63;18.73;;;;;;;2.61;76.40;99687.53;5031661;28;20041;-75
2021/01/01 06:30:03;;;;;;;30.52;19.65;;;;;;;2.58;76.81;99690.97;5039316;28;20037;-75
2021/01/01 06:32:32;;;;;;;36.33;22.23;;;;;;;2.59;76.89;99690.13;5031461;28;20048;-75
2021/01/01 06:35:12;;;;;;;31.45;19.33;;;;;;;2.59;77.25;99697.94;5039293;28;20412;-75
2021/01/01 06:37:47;;;;;;;34.80;21.58;;;;;;;2.50;77.43;99692.59;5032962;28;20025;-75
2021/01/01 06:40:32;;;;;;;36.20;21.65;;;;;;;2.51;77.43;99698.69;5040915;28;20029;-75
2021/01/01 06:43:06;;;;;;;33.00;20.15;;;;;;;2.57;76.92;99701.38;5044773;28;20069;-75
2021/01/01 06:45:39;;;;;;;36.10;21.50;;;;;;;2.59;76.70;99700.53;5036104;28;20057;-75
2021/01/01 06:48:24;;;;;;;33.40;20.92;;;;;;;2.49;77.56;99706.50;5043867;28;20045;-75
2021/01/01 06:50:51;;;;;;;28.02;18.75;;;;;;;2.46;77.47;99706.41;5046078;28;20434;-75
2021/01/01 06:53:18;;;;;;;34.53;21.80;;;;;;;2.46;78.07;99711.63;5043680;28;20044;-75
2021/01/01 06:55:46;;;;;;;36.65;20.80;;;;;;;2.56;78.21;99718.72;5042986;28;20108;-75
2021/01/01 06:58:13;;;;;;;32.33;19.92;;;;;;;2.61;77.60;99704.03;5044536;28;20040;-75
2021/01/01 07:00:58;;;;;;;30.08;19.27;;;;;;;2.57;78.03;99712.66;5046194;28;20075;-75
2021/01/01 07:03:30;;;;;;;34.22;22.08;;;;;;;2.61;78.08;99711.84;5041019;28;20103;-75
2021/01/01 07:06:01;;;;;;;34.13;21.88;;;;;;;2.68;77.59;99720.63;5041454;28;20408;-75
2021/01/01 07:08:41;;;;;;;34.17;20.35;;;;;;;2.74;77.20;99712.88;5036181;28;20099;-75
2021/01/01 07:11:10;;;;;;;36.85;21.00;;;;;;;2.69;77.10;99722.34;5041484;28;20435;-75
2021/01/01 07:13:50;;;;;;;31.30;20.88;;;;;;;2.55;77.80;99722.19;5044726;28;20037;-75
2021/01/01 07:16:20;;;;;;;33.50;20.65;;;;;;;2.53;77.91;99725.63;5043842;28;20048;-75
2021/01/01 07:18:45;;;;;;;35.05;21.33;;;;;;;2.54;77.67;99720.44;5042508;28;20037;-75
2021/01/01 07:21:15;;;;;;;32.15;20.50;;;;;;;2.62;77.41;99731.84;5044073;28;20120;-75
2021/01/01 07:23:41;;;;;;;31.58;20.75;;;;;;;2.51;77.87;99729.94;5045588;28;20043;-75
2021/01/01 07:26:07;;;;;;;36.53;23.15;;;;;;;2.50;77.69;99733.41;5043552;28;20048;-75
2021/01/01 07:28:33;;;;;;;36.03;23.25;;;;;;;2.50;77.70;99730.81;5041135;28;20033;-75
2021/01/01 07:30:59;;;;;;;35.55;21.80;;;;;;;2.50;77.89;99729.06;5042266;28;20129;-75
2021/01/01 07:33:27;;;;;;;37.53;22.23;;;;;;;2.52;77.81;99737.78;5045351;28;20071;-75
2021/01/01 07:36:03;;;;;;;30.10;20.83;;;;;;;2.52;78.02;99729.97;5045722;28;20041;-75
2021/01/01 07:38:31;;;;;;;33.40;20.77;;;;;;;2.55;78.09;99732.59;5034725;28;20440;-75
2021/01/01 07:40:58;;;;;;;32.75;21.40;;;;;;;2.61;77.72;99730.06;5042117;28;20381;-75
2021/01/01 07:43:24;;;;;;;34.85;23.05;;;;;;;2.61;78.23;99730.06;5043824;28;20040;-75
2021/01/01 07:45:49;;;;;;;34.30;21.95;;;;;;;2.63;78.32;99737.91;5045532;28;20407;-75
2021/01/01 07:48:15;;;;;;;36.00;23.50;;;;;;;2.69;77.80;99735.38;5043310;28;20033;-75
2021/01/01 07:50:40;;;;;;;35.33;21.23;;;;;;;2.73;78.11;99738.94;5041918;28;20036;-75
2021/01/01 07:53:10;;;;;;;36.15;21.67;;;;;;;2.79;77.37;99746.81;5041694;28;20045;-75
2021/01/01 07:55:37;;;;;;;31.92;20.63;;;;;;;2.76;77.99;99757.19;5044901;28;20568;-75
2021/01/01 07:58:13;;;;;;;32.60;20.75;;;;;;;2.82;77.78;99749.44;5044909;28;20135;-75
2021/01/01 08:00:41;;;;;;;35.05;21.95;;;;;;;2.82;77.69;99749.44;5041690;28;20492;-75
2021/01/01 08:03:07;;;;;;;40.35;23.77;;;;;;;2.79;77.57;99754.63;5041055;28;20030;-75
2021/01/01 08:05:33;;;;;;;31.95;20.17;;;;;;;2.75;77.79;99755.44;5045121;28;20122;-75
2021/01/01 08:08:17;;;;;;;39.55;25.42;;;;;;;2.72;77.87;99752.78;5045104;28;20068;-75
2021/01/01 08:10:44;;;;;;;35.00;21.83;;;;;;;2.81;77.95;99759.00;5035751;28;20040;-75
2021/01/01 08:13:20;;;;;;;34.45;21.58;;;;;;;2.84;77.67;99751.22;5042648;28;20412;-75
2021/01/01 08:15:47;;;;;;;35.83;23.20;;;;;;;2.88;77.37;99753.84;5044867;28;20029;-75
2021/01/01 08:18:20;;;;;;;35.20;23.13;;;;;;;2.93;77.69;99755.66;5042962;28;20036;-75
2021/01/01 08:20:55;;;;;;;39.65;24.02;;;;;;;3.01;76.65;99763.56;5024387;28;20029;-75
2021/01/01 08:23:21;;;;;;;42.03;26.80;;;;;;;2.91;77.20;99760.00;5043927;28;20166;-75
2021/01/01 08:25:48;;;;;;;36.92;23.13;;;;;;;2.97;77.00;99765.28;5043450;28;20035;-75
2021/01/01 08:28:19;;;;;;;38.50;24.50;;;;;;;2.98;76.84;99766.16;5042771;28;20138;-75
2021/01/01 08:30:51;;;;;;;42.45;25.75;;;;;;;2.90;77.26;99776.47;5041217;28;20124;-75
2021/01/01 08:33:17;;;;;;;37.25;23.13;;;;;;;2.90;77.73;99771.25;5043148;28;20068;-75
2021/01/01 08:35:42;;;;;;;33.80;22.33;;;;;;;2.92;77.65;99769.56;5043291;28;20064;-75
2021/01/01 08:38:18;;;;;;;36.83;23.23;;;;;;;2.97;77.32;99769.63;5043257;28;20424;-75
2021/01/01 08:40:44;;;;;;;33.63;21.70;;;;;;;2.96;77.59;99771.38;5039714;28;20042;-75
2021/01/01 08:43:09;;;;;;;33.63;20.85;;;;;;;3.02;77.73;99773.16;5041942;28;20405;-75
2021/01/01 08:45:35;;;;;;;35.35;21.10;;;;;;;3.10;77.17;99778.47;5044320;28;20032;-75
2021/01/01 08:48:11;;;;;;;33.65;21.27;;;;;;;3.07;77.34;99780.19;5044252;28;20546;-75
2021/01/01 08:50:51;;;;;;;32.53;19.90;;;;;;;3.13;77.15;99787.19;5040703;28;20373;-75
2021/01/01 08:53:18;;;;;;;30.83;20.70;;;;;;;3.17;77.44;99782.88;5043040;28;20478;-75
2021/01/01 08:55:54;;;;;;;31.83;20.67;;;;;;;3.18;76.88;99787.25;5043196;28;20392;-75
2021/01/01 08:58:20;;;;;;;35.28;21.42;;;;;;;3.07;77.55;99788.00;5040123;28;20052;-75
2021/01/01 09:00:46;;;;;;;34.65;21.80;;;;;;;3.02;77.85;99789.69;5039288;28;20037;-75
2021/01/01 09:03:21;;;;;;;33.28;21.42;;;;;;;3.15;77.58;99789.84;5040573;28;20041;-75
2021/01/01 09:05:51;;;;;;;33.95;21.40;;;;;;;3.22;77.22;99797.75;5041901;28;20041;-75
2021/01/01 09:08:21;;;;;;;32.60;20.00;;;;;;;3.31;77.20;99791.75;5041751;28;20041;-75
2021/01/01 09:10:48;;;;;;;32.00;20.20;;;;;;;3.41;76.76;99795.34;5042543;28;20044;-75
2021/01/01 09:13:24;;;;;;;31.42;21.00;;;;;;;3.43;76.83;99791.91;5041618;28;20490;-75
2021/01/01 09:16:12;;;;;;;35.40;20.20;;;;;;;3.48;76.90;99791.91;5039093;28;20040;-75
2021/01/01 09:18:38;;;;;;;33.50;20.10;;;;;;;3.45;76.80;99789.28;5033780;28;20041;-75
2021/01/01 09:21:11;;;;;;;33.08;19.70;;;;;;;3.55;76.60;99801.56;5040699;28;20041;-75
2021/01/01 09:23:37;;;;;;;33.33;21.05;;;;;;;3.60;76.18;99796.41;5043332;28;20041;-75
2021/01/01 09:26:03;;;;;;;35.00;22.20;;;;;;;3.57;76.59;99804.22;5042044;28;20116;-75
2021/01/01 09:28:29;;;;;;;34.22;20.98;;;;;;;3.63;76.75;99799.91;5040162;28;20049;-75
2021/01/01 09:30:54;;;;;;;34.15;21.38;;;;;;;3.75;76.26;99799.19;5039863;28;20091;-75
2021/01/01 09:33:20;;;;;;;31.10;21.63;;;;;;;3.88;75.89;99808.00;5041224;28;20115;-75
2021/01/01 09:35:45;;;;;;;31.73;20.33;;;;;;;4.07;75.29;99809.03;5043450;28;20064;-75
2021/01/01 09:38:11;;;;;;;28.00;18.70;;;;;;;4.18;75.25;99804.75;5041753;28;20120;-75
2021/01/01 09:40:36;;;;;;;30.25;19.35;;;;;;;4.22;74.45;99811.78;5038868;28;20037;-75
2021/01/01 09:43:03;;;;;;;33.72;21.33;;;;;;;4.24;75.12;99811.78;5045992;28;20032;-75
2021/01/01 09:45:30;;;;;;;31.98;21.08;;;;;;;4.24;75.21;99817.00;5043154;28;20049;-75
2021/01/01 09:47:55;;;;;;;34.00;20.90;;;;;;;4.22;74.76;99817.00;5043332;28;20475;-75
2021/01/01 09:50:21;;;;;;;30.13;20.63;;;;;;;4.30;74.79;99815.31;5040156;28;20044;-75
2021/01/01 09:52:46;;;;;;;35.95;22.00;;;;;;;4.33;73.98;99819.69;5039504;28;20033;-75
2021/01/01 09:55:12;;;;;;;33.38;21.80;;;;;;;4.41;74.24;99811.91;5041370;28;20072;-75
2021/01/01 09:57:41;;;;;;;32.58;21.20;;;;;;;4.50;73.55;99817.19;5041785;28;20048;-75
2021/01/01 10:00:11;;;;;;;28.02;19.25;;;;;;;4.57;73.47;99819.00;5041956;28;20462;-75
2021/01/01 10:02:39;;;;;;;31.52;21.20;;;;;;;4.60;73.20;99824.22;5039307;28;20626;-75
2021/01/01 10:05:06;;;;;;;29.00;19.02;;;;;;;4.64;73.82;99826.03;5040249;28;20037;-75
2021/01/01 10:07:31;;;;;;;29.67;19.27;;;;;;;4.61;73.46;99821.66;5041862;28;20112;-75
2021/01/01 10:09:57;;;;;;;33.00;23.05;;;;;;;4.67;73.44;99833.00;5041628;28;20582;-75
2021/01/01 10:12:23;;;;;;;36.53;22.38;;;;;;;4.66;73.57;99834.72;5039389;28;20052;-75
2021/01/01 10:14:54;;;;;;;31.20;19.73;;;;;;;4.67;73.46;99825.16;5039446;28;20043;-75
2021/01/01 10:17:24;;;;;;;32.10;21.48;;;;;;;4.65;73.20;99825.13;5041473;28;20041;-75
2021/01/01 10:19:49;;;;;;;28.33;19.63;;;;;;;4.65;73.21;99827.75;5042845;28;20033;-75
2021/01/01 10:22:15;;;;;;;32.15;20.25;;;;;;;4.75;73.09;99821.72;5040329;28;20029;-75
2021/01/01 10:24:45;;;;;;;28.63;18.48;;;;;;;4.83;73.21;99825.25;5039419;28;20044;-75
2021/01/01 10:27:12;;;;;;;28.10;18.98;;;;;;;4.90;73.05;99825.28;5040867;28;20037;-75
2021/01/01 10:29:38;;;;;;;26.73;18.13;;;;;;;4.94;72.51;99824.44;5041332;28;20060;-75
2021/01/01 10:32:04;;;;;;;30.85;19.98;;;;;;;4.84;72.52;99833.97;5042062;28;20554;-75
2021/01/01 10:34:29;;;;;;;30.92;20.48;;;;;;;4.81;72.47;99829.59;5039091;28;20504;-75
2021/01/01 10:36:55;;;;;;;29.23;18.38;;;;;;;4.84;72.70;99827.00;5038103;28;20049;-75
2021/01/01 10:39:20;;;;;;;27.27;18.38;;;;;;;4.83;72.60;99827.00;5041897;28;20129;-75
2021/01/01 10:41:49;;;;;;;29.50;19.90;;;;;;;4.88;72.52;99824.41;5041220;28;20175;-75
2021/01/01 10:44:15;;;;;;;25.42;17.67;;;;;;;4.92;72.66;99819.19;5040418;28;20458;-75
2021/01/01 10:46:41;;;;;;;28.55;19.05;;;;;;;4.99;72.59;99820.09;5028905;28;20464;-75
2021/01/01 10:49:07;;;;;;;26.85;17.67;;;;;;;4.95;72.39;99819.22;5022838;28;20045;-75
2021/01/01 10:51:32;;;;;;;26.67;16.98;;;;;;;4.96;72.62;99818.34;5037209;28;20030;-75
2021/01/01 10:53:57;;;;;;;26.48;17.63;;;;;;;4.98;72.25;99819.25;5044969;28;20045;-75
2021/01/01 10:56:25;;;;;;;28.13;17.13;;;;;;;5.06;72.57;99814.06;5024466;28;20037;-76
2021/01/01 10:58:50;;;;;;;26.13;17.52;;;;;;;5.07;72.35;99817.53;5042688;28;20036;-80
2021/01/01 11:01:19;;;;;;;29.30;17.48;;;;;;;5.13;71.76;99815.81;5041634;28;20033;-78
2021/01/01 11:03:45;;;;;;;22.73;15.55;;;;;;;5.01;71.93;99810.53;5033519;28;20033;-78
2021/01/01 11:06:11;;;;;;;22.55;14.85;;;;;;;5.00;72.21;99808.78;5046892;28;20036;-78
2021/01/01 11:08:38;;;;;;;25.58;17.58;;;;;;;5.13;72.27;99810.56;5045189;28;20355;-77
2021/01/01 11:11:03;;;;;;;22.77;15.20;;;;;;;5.27;72.04;99814.13;5040256;28;20072;-78
2021/01/01 11:13:29;;;;;;;20.58;14.85;;;;;;;5.37;71.87;99808.91;5040437;28;20178;-78
2021/01/01 12:24:46;;;;;;;18.05;12.15;;;;;;;5.33;72.21;99817.66;5041285;28;20561;-72
2021/01/01 12:27:15;;;;;;;17.67;12.40;;;;;;;5.31;71.87;99820.25;5040939;28;20153;-72
2021/01/01 12:29:41;;;;;;;19.30;12.73;;;;;;;5.14;71.69;99828.03;5042828;28;20423;-73
2021/01/01 12:32:07;;;;;;;19.27;13.40;;;;;;;4.99;72.33;99820.09;5041599;28;20146;-72
2021/01/01 12:34:32;;;;;;;20.35;14.13;;;;;;;5.06;72.37;99824.50;5039239;28;20029;-73
2021/01/01 12:36:58;;;;;;;18.23;12.18;;;;;;;5.12;72.18;99814.06;5039129;28;20033;-73